Accueil
METAR-TAF:

METAR-TAF

Aéroports :

Aéroport international de Bahawalpur

Bahawalpur, Pakistan

latitude: 29-20-53N, longitude: 71-43-04E, altitude: 119 m

METAR: absent

Heure: 04:30 (23:30 UTC)

Prévision

Le bulletin a été fait il y a 7 heures et 40 minutes, à 15:50 UTC
Prévision valable du 22 à 18 UTC au 23 à 12 UTC
Vent 5 kt de nord-est
Visibilité: 3000 m
Quelques nuages à une hauteur de 12000 ft
fumée
Probabilité 30% :
Temporairement
du 22 à 20 UTC au 22 à 24 UTC
Vent kt de nord
Visibilité: 1000 m
brume
Temporairement
du 23 à 00 UTC au 23 à 04 UTC
Vent kt de nord
Visibilité: 0800 m
brouillard

TAF: OPBW 221550Z 2218/2312 05005KT 3000 FU FEW120 TN08/2301Z TX20/2310Z PROB30 TEMPO 2220/2224 00000KT 1000 BR NSC TEMPO 2300/2304 00000KT 0800 FG NSC

Observations et prévisions météorologiques de plus de 4000 aéroports (messages METAR et TAF).

Les stations disponibles sont représentées par des disques jaunes et rouges sur la carte.

Passer la souris dessus pour voir le nom de la station.

Cliquer dessus pour voir les observations et prévisions météorologiques.

Pour changer de carte: cliquez sur les boutons verts avec une croix noire pour zoomer, sur le bouton vert avec un tiret pour effectuer un zoom arrière, ou sur les flèches vertes pour les cartes adjacentes.


METAR-TAF: